METAR Data
IDs: Format: Raw Decoded Include TAF

Data at: 0751 UTC 01 Aug 2021

SABE 010700Z 00000KT 9000 MIFG NSC 07/06 Q1031 TEMPO 5000 MIFG BR